sensor_id;sensor_type;location;lat;lon;timestamp;temperature;humidity
40323;DHT22;26030;51.164;17.100;2023-08-06T00:03:23;24.70;63.40
40323;DHT22;26030;51.164;17.100;2023-08-06T00:08:27;24.70;63.50
40323;DHT22;26030;51.164;17.100;2023-08-06T00:13:32;24.70;63.60
40323;DHT22;26030;51.164;17.100;2023-08-06T00:18:36;24.70;63.60
40323;DHT22;26030;51.164;17.100;2023-08-06T00:23:41;24.70;63.70
40323;DHT22;26030;51.164;17.100;2023-08-06T00:28:45;24.70;63.70
40323;DHT22;26030;51.164;17.100;2023-08-06T00:33:49;24.70;63.60
40323;DHT22;26030;51.164;17.100;2023-08-06T00:38:53;24.70;63.70
40323;DHT22;26030;51.164;17.100;2023-08-06T00:43:59;24.70;63.70
40323;DHT22;26030;51.164;17.100;2023-08-06T00:49:03;24.70;64.40
40323;DHT22;26030;51.164;17.100;2023-08-06T00:54:09;24.70;63.70
40323;DHT22;26030;51.164;17.100;2023-08-06T00:59:22;24.70;63.80
40323;DHT22;26030;51.164;17.100;2023-08-06T01:04:29;24.70;63.80
40323;DHT22;26030;51.164;17.100;2023-08-06T01:14:47;24.70;63.60
40323;DHT22;26030;51.164;17.100;2023-08-06T01:20:05;24.70;63.60
40323;DHT22;26030;51.164;17.100;2023-08-06T01:25:09;24.70;64.00
40323;DHT22;26030;51.164;17.100;2023-08-06T01:30:21;24.70;64.20
40323;DHT22;26030;51.164;17.100;2023-08-06T01:35:30;24.60;63.90
40323;DHT22;26030;51.164;17.100;2023-08-06T01:40:36;24.70;63.90
40323;DHT22;26030;51.164;17.100;2023-08-06T01:45:40;24.60;64.00
40323;DHT22;26030;51.164;17.100;2023-08-06T01:50:46;24.60;64.30
40323;DHT22;26030;51.164;17.100;2023-08-06T01:55:51;24.60;64.10
40323;DHT22;26030;51.164;17.100;2023-08-06T02:00:55;24.60;64.10
40323;DHT22;26030;51.164;17.100;2023-08-06T02:06:00;24.60;64.10
40323;DHT22;26030;51.164;17.100;2023-08-06T02:11:04;24.70;64.00
40323;DHT22;26030;51.164;17.100;2023-08-06T02:16:10;24.60;64.20
40323;DHT22;26030;51.164;17.100;2023-08-06T02:21:14;24.60;64.50
40323;DHT22;26030;51.164;17.100;2023-08-06T02:26:18;24.60;64.40
40323;DHT22;26030;51.164;17.100;2023-08-06T02:31:23;24.60;64.50
40323;DHT22;26030;51.164;17.100;2023-08-06T02:36:28;24.60;64.20
40323;DHT22;26030;51.164;17.100;2023-08-06T02:41:34;24.70;64.60
40323;DHT22;26030;51.164;17.100;2023-08-06T02:46:38;24.60;65.00
40323;DHT22;26030;51.164;17.100;2023-08-06T02:51:44;24.60;64.50
40323;DHT22;26030;51.164;17.100;2023-08-06T02:56:49;24.60;64.50
40323;DHT22;26030;51.164;17.100;2023-08-06T03:01:59;24.70;65.00
40323;DHT22;26030;51.164;17.100;2023-08-06T03:07:11;24.60;64.30
40323;DHT22;26030;51.164;17.100;2023-08-06T03:12:25;24.60;64.30
40323;DHT22;26030;51.164;17.100;2023-08-06T03:17:29;24.60;64.30
40323;DHT22;26030;51.164;17.100;2023-08-06T03:22:34;24.60;64.80
40323;DHT22;26030;51.164;17.100;2023-08-06T03:27:38;24.60;65.10
40323;DHT22;26030;51.164;17.100;2023-08-06T03:32:43;24.70;65.20
40323;DHT22;26030;51.164;17.100;2023-08-06T03:37:48;24.60;64.20
40323;DHT22;26030;51.164;17.100;2023-08-06T03:42:53;24.50;64.60
40323;DHT22;26030;51.164;17.100;2023-08-06T03:47:58;24.60;64.30
40323;DHT22;26030;51.164;17.100;2023-08-06T03:53:02;24.50;64.30
40323;DHT22;26030;51.164;17.100;2023-08-06T03:58:07;24.60;64.30
40323;DHT22;26030;51.164;17.100;2023-08-06T04:03:11;24.60;64.40
40323;DHT22;26030;51.164;17.100;2023-08-06T04:08:16;24.60;64.40
40323;DHT22;26030;51.164;17.100;2023-08-06T04:13:20;24.60;64.60
40323;DHT22;26030;51.164;17.100;2023-08-06T04:18:27;24.60;64.50
40323;DHT22;26030;51.164;17.100;2023-08-06T04:23:31;24.50;64.70
40323;DHT22;26030;51.164;17.100;2023-08-06T04:28:39;24.50;64.40
40323;DHT22;26030;51.164;17.100;2023-08-06T04:33:44;24.60;64.80
40323;DHT22;26030;51.164;17.100;2023-08-06T04:38:51;24.60;64.40
40323;DHT22;26030;51.164;17.100;2023-08-06T04:43:59;24.50;65.20
40323;DHT22;26030;51.164;17.100;2023-08-06T04:49:04;24.50;64.40
40323;DHT22;26030;51.164;17.100;2023-08-06T04:54:14;24.50;64.90
40323;DHT22;26030;51.164;17.100;2023-08-06T04:59:19;24.50;64.50
40323;DHT22;26030;51.164;17.100;2023-08-06T05:04:23;24.50;64.70
40323;DHT22;26030;51.164;17.100;2023-08-06T05:09:27;24.50;64.40
40323;DHT22;26030;51.164;17.100;2023-08-06T05:14:31;24.50;64.40
40323;DHT22;26030;51.164;17.100;2023-08-06T05:19:36;24.50;64.40
40323;DHT22;26030;51.164;17.100;2023-08-06T05:24:40;24.50;64.60
40323;DHT22;26030;51.164;17.100;2023-08-06T05:29:44;24.50;64.30
40323;DHT22;26030;51.164;17.100;2023-08-06T05:34:49;24.50;64.60
40323;DHT22;26030;51.164;17.100;2023-08-06T05:39:53;24.50;64.30
40323;DHT22;26030;51.164;17.100;2023-08-06T05:44:57;24.50;64.30
40323;DHT22;26030;51.164;17.100;2023-08-06T05:50:01;24.50;64.50
40323;DHT22;26030;51.164;17.100;2023-08-06T05:55:06;24.50;64.00
40323;DHT22;26030;51.164;17.100;2023-08-06T06:00:10;24.50;64.70
40323;DHT22;26030;51.164;17.100;2023-08-06T06:05:15;24.50;64.30
40323;DHT22;26030;51.164;17.100;2023-08-06T06:10:19;24.40;64.30
40323;DHT22;26030;51.164;17.100;2023-08-06T06:15:24;24.50;64.30
40323;DHT22;26030;51.164;17.100;2023-08-06T06:20:28;24.50;64.40
40323;DHT22;26030;51.164;17.100;2023-08-06T06:25:32;24.50;64.30
40323;DHT22;26030;51.164;17.100;2023-08-06T06:30:36;24.40;64.60
40323;DHT22;26030;51.164;17.100;2023-08-06T06:35:40;24.50;64.30
40323;DHT22;26030;51.164;17.100;2023-08-06T06:40:55;24.50;64.50
40323;DHT22;26030;51.164;17.100;2023-08-06T06:46:00;24.50;64.30
40323;DHT22;26030;51.164;17.100;2023-08-06T06:51:04;24.40;64.50
40323;DHT22;26030;51.164;17.100;2023-08-06T06:56:09;24.40;64.50
40323;DHT22;26030;51.164;17.100;2023-08-06T07:01:13;24.40;64.30
40323;DHT22;26030;51.164;17.100;2023-08-06T07:06:17;24.50;64.20
40323;DHT22;26030;51.164;17.100;2023-08-06T07:11:22;24.40;64.60
40323;DHT22;26030;51.164;17.100;2023-08-06T07:16:26;24.40;64.20
40323;DHT22;26030;51.164;17.100;2023-08-06T07:21:30;24.40;64.40
40323;DHT22;26030;51.164;17.100;2023-08-06T07:26:36;24.40;64.50
40323;DHT22;26030;51.164;17.100;2023-08-06T07:31:40;24.40;64.10
40323;DHT22;26030;51.164;17.100;2023-08-06T07:36:45;24.50;64.20
40323;DHT22;26030;51.164;17.100;2023-08-06T07:41:50;24.50;64.40
40323;DHT22;26030;51.164;17.100;2023-08-06T07:46:55;24.40;64.40
40323;DHT22;26030;51.164;17.100;2023-08-06T07:52:02;24.30;63.50
40323;DHT22;26030;51.164;17.100;2023-08-06T07:57:07;24.30;63.80
40323;DHT22;26030;51.164;17.100;2023-08-06T08:02:11;24.20;63.10
40323;DHT22;26030;51.164;17.100;2023-08-06T08:07:15;24.20;63.60
40323;DHT22;26030;51.164;17.100;2023-08-06T08:12:20;24.20;63.40
40323;DHT22;26030;51.164;17.100;2023-08-06T08:17:24;24.20;63.20
40323;DHT22;26030;51.164;17.100;2023-08-06T08:22:28;24.20;63.00
40323;DHT22;26030;51.164;17.100;2023-08-06T08:27:36;24.30;63.40
40323;DHT22;26030;51.164;17.100;2023-08-06T08:32:41;24.30;64.30
40323;DHT22;26030;51.164;17.100;2023-08-06T08:37:46;24.30;64.70
40323;DHT22;26030;51.164;17.100;2023-08-06T08:42:50;24.40;65.50
40323;DHT22;26030;51.164;17.100;2023-08-06T08:47:55;24.50;65.60
40323;DHT22;26030;51.164;17.100;2023-08-06T08:53:02;24.70;65.60
40323;DHT22;26030;51.164;17.100;2023-08-06T08:58:06;24.70;65.80
40323;DHT22;26030;51.164;17.100;2023-08-06T09:03:16;24.70;65.20
40323;DHT22;26030;51.164;17.100;2023-08-06T09:08:27;24.60;65.50
40323;DHT22;26030;51.164;17.100;2023-08-06T09:13:36;24.60;65.70
40323;DHT22;26030;51.164;17.100;2023-08-06T09:18:41;24.70;66.50
40323;DHT22;26030;51.164;17.100;2023-08-06T09:23:45;24.60;66.10
40323;DHT22;26030;51.164;17.100;2023-08-06T09:28:52;24.60;66.50
40323;DHT22;26030;51.164;17.100;2023-08-06T09:33:57;24.60;65.50
40323;DHT22;26030;51.164;17.100;2023-08-06T09:39:12;24.70;65.90
40323;DHT22;26030;51.164;17.100;2023-08-06T09:44:18;24.70;65.70
40323;DHT22;26030;51.164;17.100;2023-08-06T09:49:27;24.70;65.20
40323;DHT22;26030;51.164;17.100;2023-08-06T09:54:44;24.70;65.70
40323;DHT22;26030;51.164;17.100;2023-08-06T09:59:50;24.80;65.30
40323;DHT22;26030;51.164;17.100;2023-08-06T10:04:56;24.80;65.20
40323;DHT22;26030;51.164;17.100;2023-08-06T10:10:02;24.60;65.60
40323;DHT22;26030;51.164;17.100;2023-08-06T10:15:08;24.60;65.70
40323;DHT22;26030;51.164;17.100;2023-08-06T10:20:14;24.60;65.50
40323;DHT22;26030;51.164;17.100;2023-08-06T10:25:19;24.50;65.90
40323;DHT22;26030;51.164;17.100;2023-08-06T10:30:30;24.50;66.10
40323;DHT22;26030;51.164;17.100;2023-08-06T10:35:42;24.60;65.70
40323;DHT22;26030;51.164;17.100;2023-08-06T10:45:58;24.70;65.60
40323;DHT22;26030;51.164;17.100;2023-08-06T10:51:03;24.80;65.20
40323;DHT22;26030;51.164;17.100;2023-08-06T10:56:14;24.80;65.20
40323;DHT22;26030;51.164;17.100;2023-08-06T11:01:20;24.70;65.50
40323;DHT22;26030;51.164;17.100;2023-08-06T11:06:26;24.80;66.80
40323;DHT22;26030;51.164;17.100;2023-08-06T11:11:31;24.70;67.60
40323;DHT22;26030;51.164;17.100;2023-08-06T11:16:35;24.80;68.00
40323;DHT22;26030;51.164;17.100;2023-08-06T11:21:40;25.10;66.90
40323;DHT22;26030;51.164;17.100;2023-08-06T11:26:47;25.10;66.50
40323;DHT22;26030;51.164;17.100;2023-08-06T11:31:51;25.10;67.10
40323;DHT22;26030;51.164;17.100;2023-08-06T11:36:56;25.10;66.30
40323;DHT22;26030;51.164;17.100;2023-08-06T11:42:02;25.20;66.30
40323;DHT22;26030;51.164;17.100;2023-08-06T11:47:11;25.30;66.00
40323;DHT22;26030;51.164;17.100;2023-08-06T11:52:18;25.30;66.00
40323;DHT22;26030;51.164;17.100;2023-08-06T11:57:23;25.30;65.50
40323;DHT22;26030;51.164;17.100;2023-08-06T12:02:28;25.20;66.20
40323;DHT22;26030;51.164;17.100;2023-08-06T12:07:38;25.30;66.50
40323;DHT22;26030;51.164;17.100;2023-08-06T12:12:44;25.40;66.60
40323;DHT22;26030;51.164;17.100;2023-08-06T12:17:48;25.40;66.10
40323;DHT22;26030;51.164;17.100;2023-08-06T12:22:52;25.40;66.30
40323;DHT22;26030;51.164;17.100;2023-08-06T12:27:56;25.40;66.40
40323;DHT22;26030;51.164;17.100;2023-08-06T12:33:01;25.30;66.20
40323;DHT22;26030;51.164;17.100;2023-08-06T12:38:05;25.40;66.40
40323;DHT22;26030;51.164;17.100;2023-08-06T12:43:10;25.40;66.10
40323;DHT22;26030;51.164;17.100;2023-08-06T12:48:14;25.30;66.30
40323;DHT22;26030;51.164;17.100;2023-08-06T12:53:19;25.30;66.10
40323;DHT22;26030;51.164;17.100;2023-08-06T12:58:27;25.30;66.10
40323;DHT22;26030;51.164;17.100;2023-08-06T13:03:31;25.10;66.80
40323;DHT22;26030;51.164;17.100;2023-08-06T13:08:36;25.00;66.60
40323;DHT22;26030;51.164;17.100;2023-08-06T13:13:41;25.10;66.60
40323;DHT22;26030;51.164;17.100;2023-08-06T13:18:46;25.00;66.80
40323;DHT22;26030;51.164;17.100;2023-08-06T13:23:51;24.90;67.30
40323;DHT22;26030;51.164;17.100;2023-08-06T13:28:56;24.90;67.30
40323;DHT22;26030;51.164;17.100;2023-08-06T13:34:02;24.90;67.00
40323;DHT22;26030;51.164;17.100;2023-08-06T13:39:06;24.90;66.80
40323;DHT22;26030;51.164;17.100;2023-08-06T13:44:12;24.90;67.00
40323;DHT22;26030;51.164;17.100;2023-08-06T13:49:18;24.90;67.30
40323;DHT22;26030;51.164;17.100;2023-08-06T13:54:26;24.80;67.10
40323;DHT22;26030;51.164;17.100;2023-08-06T13:59:31;24.90;67.00
40323;DHT22;26030;51.164;17.100;2023-08-06T14:04:36;24.90;66.80
40323;DHT22;26030;51.164;17.100;2023-08-06T14:09:41;24.90;67.10
40323;DHT22;26030;51.164;17.100;2023-08-06T14:14:48;24.80;67.40
40323;DHT22;26030;51.164;17.100;2023-08-06T14:19:52;24.90;67.60
40323;DHT22;26030;51.164;17.100;2023-08-06T14:25:00;24.90;67.30
40323;DHT22;26030;51.164;17.100;2023-08-06T14:30:07;24.90;68.00
40323;DHT22;26030;51.164;17.100;2023-08-06T14:35:12;24.90;68.00
40323;DHT22;26030;51.164;17.100;2023-08-06T14:40:18;24.90;68.00
40323;DHT22;26030;51.164;17.100;2023-08-06T14:45:25;25.00;69.40
40323;DHT22;26030;51.164;17.100;2023-08-06T14:50:31;25.20;69.00
40323;DHT22;26030;51.164;17.100;2023-08-06T14:55:36;25.20;69.00
40323;DHT22;26030;51.164;17.100;2023-08-06T15:00:42;25.30;69.60
40323;DHT22;26030;51.164;17.100;2023-08-06T15:05:52;25.20;68.90
40323;DHT22;26030;51.164;17.100;2023-08-06T15:10:57;24.90;67.80
40323;DHT22;26030;51.164;17.100;2023-08-06T15:16:06;24.70;67.50
40323;DHT22;26030;51.164;17.100;2023-08-06T15:21:11;25.00;67.80
40323;DHT22;26030;51.164;17.100;2023-08-06T15:26:16;25.20;67.50
40323;DHT22;26030;51.164;17.100;2023-08-06T15:31:23;25.20;66.90
40323;DHT22;26030;51.164;17.100;2023-08-06T15:36:39;25.20;66.60
40323;DHT22;26030;51.164;17.100;2023-08-06T15:41:44;25.20;67.20
40323;DHT22;26030;51.164;17.100;2023-08-06T15:46:49;25.20;67.10
40323;DHT22;26030;51.164;17.100;2023-08-06T15:51:56;25.20;66.80
40323;DHT22;26030;51.164;17.100;2023-08-06T15:57:01;25.10;66.90
40323;DHT22;26030;51.164;17.100;2023-08-06T16:02:07;25.20;66.80
40323;DHT22;26030;51.164;17.100;2023-08-06T16:07:13;25.10;66.40
40323;DHT22;26030;51.164;17.100;2023-08-06T16:12:18;25.10;66.20
40323;DHT22;26030;51.164;17.100;2023-08-06T16:17:25;25.10;66.30
40323;DHT22;26030;51.164;17.100;2023-08-06T16:22:33;25.10;65.90
40323;DHT22;26030;51.164;17.100;2023-08-06T16:27:37;25.10;65.70
40323;DHT22;26030;51.164;17.100;2023-08-06T16:32:43;25.10;65.70
40323;DHT22;26030;51.164;17.100;2023-08-06T16:37:48;25.00;65.80
40323;DHT22;26030;51.164;17.100;2023-08-06T16:42:54;25.00;66.00
40323;DHT22;26030;51.164;17.100;2023-08-06T16:47:59;25.10;65.60
40323;DHT22;26030;51.164;17.100;2023-08-06T16:53:04;25.10;64.80
40323;DHT22;26030;51.164;17.100;2023-08-06T16:58:08;25.00;65.00
40323;DHT22;26030;51.164;17.100;2023-08-06T17:03:22;25.00;65.00
40323;DHT22;26030;51.164;17.100;2023-08-06T17:08:31;25.00;65.30
40323;DHT22;26030;51.164;17.100;2023-08-06T17:13:38;24.90;64.80
40323;DHT22;26030;51.164;17.100;2023-08-06T17:18:43;24.90;65.30
40323;DHT22;26030;51.164;17.100;2023-08-06T17:23:48;24.90;65.20
40323;DHT22;26030;51.164;17.100;2023-08-06T17:28:55;24.90;64.80
40323;DHT22;26030;51.164;17.100;2023-08-06T17:34:01;24.70;64.80
40323;DHT22;26030;51.164;17.100;2023-08-06T17:39:06;24.80;64.80
40323;DHT22;26030;51.164;17.100;2023-08-06T17:44:12;24.90;64.80
40323;DHT22;26030;51.164;17.100;2023-08-06T17:49:18;25.10;64.10
40323;DHT22;26030;51.164;17.100;2023-08-06T17:54:22;25.00;64.00
40323;DHT22;26030;51.164;17.100;2023-08-06T17:59:28;25.10;63.80
40323;DHT22;26030;51.164;17.100;2023-08-06T18:04:35;25.00;64.00
40323;DHT22;26030;51.164;17.100;2023-08-06T18:09:40;25.10;63.50
40323;DHT22;26030;51.164;17.100;2023-08-06T18:14:45;25.10;63.50
40323;DHT22;26030;51.164;17.100;2023-08-06T18:19:50;25.10;63.20
40323;DHT22;26030;51.164;17.100;2023-08-06T18:24:55;25.10;63.60
40323;DHT22;26030;51.164;17.100;2023-08-06T18:30:01;25.10;63.80
40323;DHT22;26030;51.164;17.100;2023-08-06T18:35:07;25.20;64.00
40323;DHT22;26030;51.164;17.100;2023-08-06T18:40:13;25.20;64.00
40323;DHT22;26030;51.164;17.100;2023-08-06T18:45:20;25.30;64.10
40323;DHT22;26030;51.164;17.100;2023-08-06T18:50:25;25.20;64.00
40323;DHT22;26030;51.164;17.100;2023-08-06T18:55:30;25.20;63.90
40323;DHT22;26030;51.164;17.100;2023-08-06T19:00:39;25.10;64.30
40323;DHT22;26030;51.164;17.100;2023-08-06T19:05:45;25.10;64.50
40323;DHT22;26030;51.164;17.100;2023-08-06T19:10:51;25.10;64.30
40323;DHT22;26030;51.164;17.100;2023-08-06T19:15:58;25.00;64.50
40323;DHT22;26030;51.164;17.100;2023-08-06T19:21:04;25.00;64.70
40323;DHT22;26030;51.164;17.100;2023-08-06T19:26:10;24.90;64.90
40323;DHT22;26030;51.164;17.100;2023-08-06T19:31:15;24.90;65.10
40323;DHT22;26030;51.164;17.100;2023-08-06T19:36:21;25.00;64.70
40323;DHT22;26030;51.164;17.100;2023-08-06T19:41:26;25.20;64.30
40323;DHT22;26030;51.164;17.100;2023-08-06T19:46:31;25.10;64.40
40323;DHT22;26030;51.164;17.100;2023-08-06T19:51:38;25.10;64.80
40323;DHT22;26030;51.164;17.100;2023-08-06T19:56:44;25.10;64.90
40323;DHT22;26030;51.164;17.100;2023-08-06T20:01:50;25.20;65.70
40323;DHT22;26030;51.164;17.100;2023-08-06T20:06:56;25.20;66.10
40323;DHT22;26030;51.164;17.100;2023-08-06T20:12:01;25.30;66.30
40323;DHT22;26030;51.164;17.100;2023-08-06T20:17:07;25.30;66.00
40323;DHT22;26030;51.164;17.100;2023-08-06T20:22:12;25.40;66.30
40323;DHT22;26030;51.164;17.100;2023-08-06T20:27:18;25.40;66.20
40323;DHT22;26030;51.164;17.100;2023-08-06T20:32:23;25.30;66.40
40323;DHT22;26030;51.164;17.100;2023-08-06T20:37:31;25.20;66.50
40323;DHT22;26030;51.164;17.100;2023-08-06T20:42:36;25.20;66.70
40323;DHT22;26030;51.164;17.100;2023-08-06T20:47:41;25.20;66.80
40323;DHT22;26030;51.164;17.100;2023-08-06T20:52:46;25.30;67.10
40323;DHT22;26030;51.164;17.100;2023-08-06T20:57:51;25.30;66.90
40323;DHT22;26030;51.164;17.100;2023-08-06T21:02:55;25.50;66.30
40323;DHT22;26030;51.164;17.100;2023-08-06T21:08:00;25.40;66.30
40323;DHT22;26030;51.164;17.100;2023-08-06T21:13:07;25.40;66.10
40323;DHT22;26030;51.164;17.100;2023-08-06T21:18:11;25.40;66.00
40323;DHT22;26030;51.164;17.100;2023-08-06T21:23:15;25.60;65.50
40323;DHT22;26030;51.164;17.100;2023-08-06T21:28:21;25.50;65.70
40323;DHT22;26030;51.164;17.100;2023-08-06T21:33:28;25.40;66.60
40323;DHT22;26030;51.164;17.100;2023-08-06T21:38:34;25.40;66.60
40323;DHT22;26030;51.164;17.100;2023-08-06T21:43:44;25.40;66.30
40323;DHT22;26030;51.164;17.100;2023-08-06T21:48:52;25.30;66.30
40323;DHT22;26030;51.164;17.100;2023-08-06T21:53:57;25.30;66.40
40323;DHT22;26030;51.164;17.100;2023-08-06T21:59:01;25.40;66.50
40323;DHT22;26030;51.164;17.100;2023-08-06T22:04:06;25.30;65.70
40323;DHT22;26030;51.164;17.100;2023-08-06T22:09:10;25.40;65.90
40323;DHT22;26030;51.164;17.100;2023-08-06T22:14:15;25.40;65.70
40323;DHT22;26030;51.164;17.100;2023-08-06T22:19:20;25.30;66.00
40323;DHT22;26030;51.164;17.100;2023-08-06T22:24:24;25.30;66.00
40323;DHT22;26030;51.164;17.100;2023-08-06T22:29:29;25.30;65.60
40323;DHT22;26030;51.164;17.100;2023-08-06T22:34:33;25.20;65.60
40323;DHT22;26030;51.164;17.100;2023-08-06T22:39:38;25.20;65.70
40323;DHT22;26030;51.164;17.100;2023-08-06T22:44:42;24.90;66.30
40323;DHT22;26030;51.164;17.100;2023-08-06T22:49:47;24.90;66.40
40323;DHT22;26030;51.164;17.100;2023-08-06T22:54:51;24.90;66.20
40323;DHT22;26030;51.164;17.100;2023-08-06T23:00:16;24.80;66.70
40323;DHT22;26030;51.164;17.100;2023-08-06T23:05:21;24.80;66.70
40323;DHT22;26030;51.164;17.100;2023-08-06T23:10:26;24.80;66.50
40323;DHT22;26030;51.164;17.100;2023-08-06T23:15:30;24.80;66.70
40323;DHT22;26030;51.164;17.100;2023-08-06T23:20:35;24.80;66.60
40323;DHT22;26030;51.164;17.100;2023-08-06T23:25:39;24.70;66.70
40323;DHT22;26030;51.164;17.100;2023-08-06T23:30:43;24.70;67.10
40323;DHT22;26030;51.164;17.100;2023-08-06T23:35:52;24.70;66.90
40323;DHT22;26030;51.164;17.100;2023-08-06T23:40:57;24.70;66.80
40323;DHT22;26030;51.164;17.100;2023-08-06T23:46:01;24.70;66.70
40323;DHT22;26030;51.164;17.100;2023-08-06T23:51:06;24.70;66.70
40323;DHT22;26030;51.164;17.100;2023-08-06T23:56:10;25.10;65.60
